»·PEaware :: N973SE KOXR-KSBP

N973SE :: KOXR-KSBP

FLIGHT INFORMATION

Flight Status: Arrived
Operator: Privately registered:
United States
More flights under this callsign
Pilot: Stig E. (4778)
Aircraft: CESSNA 310
(C310)
More flights by this aircraft type
Origin: KOXR Oxnard
United States
Destination: KSBP San Luis Co Regl
United States
More flights between these airports :: More routes between these airports
Route: CMA6 FIM V299 GMN FLW MISHI
File this flight plan on PilotEdge
Remarks:
Altitude:
(Current/Filed)
12,500ft
Speed:
(Current/Filed)
170kts
Departed: 30-Jan-19 10:30 PM
Arrived: 30-Jan-19 11:21 PM
Distance/Time
Traveled:
94nm/0:51
Distance/Time
To Go:
Arrived

Flight Plot

Page will automatically refresh every two minutes.

Flight plan parsing failed; only flown route is shown


Map Options




Map Legend


Flown Route
Filed Route
Departure Airport
Arrival Airport
Navaid (VOR, NDB)
Fix

Horizontal Profiles

Position Reports

Time Latitude Longitude Heading Altitude Ground
Speed
30-Jan-19 22:06 34.198719 -119.202074 359 43ft 0kts
30-Jan-19 22:07 34.198719 -119.202074 359 43ft 0kts
30-Jan-19 22:08 34.198719 -119.202074 359 43ft 0kts
30-Jan-19 22:09 34.198719 -119.202074 359 43ft 0kts
30-Jan-19 22:10 34.198719 -119.202074 359 43ft 0kts
30-Jan-19 22:11 34.198719 -119.202074 359 43ft 0kts
30-Jan-19 22:12 34.198719 -119.202074 359 43ft 0kts
30-Jan-19 22:13 34.198719 -119.202074 359 43ft 0kts
30-Jan-19 22:14 34.198719 -119.202074 359 43ft 0kts
30-Jan-19 22:15 34.198719 -119.202074 359 43ft 0kts
30-Jan-19 22:16 34.198719 -119.202074 359 43ft 0kts
30-Jan-19 22:17 34.198719 -119.202074 359 43ft 0kts
30-Jan-19 22:18 34.198719 -119.202074 359 43ft 0kts
30-Jan-19 22:19 34.198719 -119.202074 359 43ft 0kts
30-Jan-19 22:20 34.198719 -119.202074 359 43ft 0kts
30-Jan-19 22:21 34.198719 -119.202074 359 43ft 0kts
30-Jan-19 22:22 34.198733 -119.202074 360 43ft 1kts
30-Jan-19 22:23 34.199748 -119.200696 90 44ft 10kts
30-Jan-19 22:24 34.199823 -119.197116 199 46ft 8kts
30-Jan-19 22:25 34.199783 -119.197237 290 46ft 0kts
30-Jan-19 22:26 34.199783 -119.197237 290 46ft 0kts
30-Jan-19 22:27 34.199784 -119.197243 282 46ft 0kts
30-Jan-19 22:28 34.199991 -119.197501 353 46ft 1kts
30-Jan-19 22:29 34.200846 -119.207101 272 79ft 113kts
30-Jan-19 22:30 34.199880 -119.249594 240 1449ft 145kts
30-Jan-19 22:31 34.173814 -119.232485 89 2506ft 162kts
30-Jan-19 22:32 34.179874 -119.178610 62 3514ft 164kts
30-Jan-19 22:33 34.200055 -119.128808 62 4518ft 166kts
30-Jan-19 22:34 34.213046 -119.075101 83 5520ft 172kts
30-Jan-19 22:35 34.215821 -119.016846 84 6524ft 173kts
30-Jan-19 22:36 34.233144 -118.968615 27 7537ft 164kts
30-Jan-19 22:37 34.272683 -118.940484 25 8541ft 167kts
30-Jan-19 22:38 34.313275 -118.912165 25 9545ft 170kts
30-Jan-19 22:39 34.354700 -118.883424 18 10545ft 172kts
30-Jan-19 22:40 34.401423 -118.879486 357 11560ft 170kts
30-Jan-19 22:41 34.449329 -118.877344 356 12476ft 179kts
30-Jan-19 22:42 34.503854 -118.874896 357 12502ft 206kts
30-Jan-19 22:43 34.562448 -118.872281 357 12500ft 212kts
30-Jan-19 22:44 34.621240 -118.869720 357 12509ft 209kts
30-Jan-19 22:45 34.678093 -118.867256 357 12522ft 200kts
30-Jan-19 22:46 34.733326 -118.864792 357 12532ft 198kts
30-Jan-19 22:47 34.788602 -118.862323 357 12529ft 198kts
30-Jan-19 22:48 34.817162 -118.908787 288 12516ft 183kts
30-Jan-19 22:49 34.834590 -118.967042 286 12494ft 183kts
30-Jan-19 22:50 34.851741 -119.025466 285 12471ft 182kts
30-Jan-19 22:51 34.868772 -119.083888 285 12458ft 182kts
30-Jan-19 22:52 34.885757 -119.142281 285 12454ft 182kts
30-Jan-19 22:53 34.902687 -119.200588 285 12375ft 186kts
30-Jan-19 22:54 34.919738 -119.259447 284 11869ft 182kts
30-Jan-19 22:55 34.936636 -119.317889 284 11371ft 184kts
30-Jan-19 22:56 34.953821 -119.377465 284 10874ft 187kts
30-Jan-19 22:57 34.971174 -119.437752 284 10337ft 191kts
30-Jan-19 22:58 34.988966 -119.499691 285 9749ft 195kts
30-Jan-19 22:59 35.007013 -119.562676 286 9160ft 197kts
30-Jan-19 23:00 35.025126 -119.626031 287 8637ft 197kts
30-Jan-19 23:01 35.043230 -119.689423 288 8162ft 193kts
30-Jan-19 23:02 35.060234 -119.749087 288 7649ft 181kts
30-Jan-19 23:03 35.076591 -119.806660 288 7148ft 178kts
30-Jan-19 23:04 35.092694 -119.864219 282 6642ft 178kts
30-Jan-19 23:05 35.097078 -119.924561 275 6143ft 178kts
30-Jan-19 23:06 35.101355 -119.985089 274 5639ft 177kts
30-Jan-19 23:08 35.105585 -120.045101 274 5137ft 177kts
30-Jan-19 23:09 35.109916 -120.105283 273 4631ft 177kts
30-Jan-19 23:10 35.113993 -120.163430 273 4510ft 165kts
30-Jan-19 23:11 35.117846 -120.218930 272 4509ft 162kts
30-Jan-19 23:12 35.121682 -120.274556 273 4192ft 165kts
30-Jan-19 23:13 35.125510 -120.330555 273 3688ft 165kts
30-Jan-19 23:14 35.129304 -120.386420 274 3185ft 164kts
30-Jan-19 23:15 35.133069 -120.442191 274 2680ft 163kts
30-Jan-19 23:16 35.149747 -120.492431 305 2223ft 164kts
30-Jan-19 23:17 35.174561 -120.534597 307 2014ft 132kts
30-Jan-19 23:18 35.196019 -120.569186 303 1434ft 122kts
30-Jan-19 23:19 35.214200 -120.600628 305 894ft 101kts
30-Jan-19 23:20 35.230178 -120.628669 306 305ft 96kts
30-Jan-19 23:21 35.239448 -120.644226 354 216ft 15kts
30-Jan-19 23:22 35.238640 -120.641577 128 215ft 9kts
30-Jan-19 23:23 35.238180 -120.639978 129 216ft 0kts

Navigation Log

Ident Type
Flight plan parsing failed, navigation log unavailable